Observations
| Time | Sensor | AQI | SAQ | Temp °C | Hum % | Pres Pa | CO μg/m³ | H₂S μg/m³ | NO μg/m³ | NO₂ μg/m³ | O₃ μg/m³ | SO₂ μg/m³ | CO₂e PPM | VOC PPM | PM1 μg/m³ | PM2.5 μg/m³ | PM4 μg/m³ | PM10 μg/m³ | TPS µm |
|---|---|---|---|---|---|---|---|---|---|---|---|---|---|---|---|---|---|---|---|
| Wednesday 12 August 2026 | |||||||||||||||||||
| 21:20 | Trim Patrick St | 3 | 26.8 | 47 | 69,183 | 0 | 20.28 | 0.76 | 31.5 | 55.62 | 12.47 | 2.86 | 8.92 | 9.81 | |||||
| 21:19 | Trim Patrick St | 3 | 26.8 | 47 | 69,173 | 0 | 20.01 | 0.75 | 27.39 | 62.23 | 12.66 | 3.71 | 8.92 | 9.81 | |||||
| 21:18 | Trim Patrick St | 3 | 26.9 | 47 | 69,185 | 0 | 19.93 | 0.72 | 23.94 | 63.85 | 12.98 | 3.71 | 8.88 | 9.77 | |||||
| 21:17 | Trim Patrick St | 3 | 26.9 | 47 | 69,202 | 0 | 21.42 | 0.72 | 31.98 | 66.35 | 12.98 | 3.71 | 9.65 | 10.62 | |||||
| 21:16 | Trim Patrick St | 3 | 27 | 47 | 69,197 | 0 | 20.16 | 0.7 | 30.92 | 54.72 | 13.1 | 4.57 | 9.67 | 10.63 | |||||
| 21:15 | Trim Patrick St | 3 | 27 | 47 | 69,189 | 0 | 19.92 | 0.71 | 24.13 | 65.88 | 12.71 | 3.71 | 8.93 | 9.82 | |||||
| 21:14 | Trim Patrick St | 3 | 27 | 46 | 69,204 | 0 | 20.4 | 0.72 | 27.75 | 60.44 | 12.96 | 5.43 | 11.28 | 12.41 | |||||
| 21:13 | Trim Market St | 3 | 27.3 | 45 | 63,855 | 0 | 2.05 | 0.69 | 14.24 | 77.76 | 0 | 2.14 | 4.23 | 7.53 | |||||
| 21:13 | Trim Patrick St | 3 | 27.1 | 46 | 69,199 | 0 | 20.45 | 0.7 | 29.63 | 62.14 | 13.06 | 5.43 | 11.28 | 12.41 | |||||
| 21:12 | Trim Market St | 3 | 27.4 | 45 | 63,866 | 0 | 2.34 | 0.68 | 20.98 | 76.54 | 0 | 2.85 | 5.8 | 8.3 | |||||
| 21:12 | Trim Patrick St | 3 | 27.1 | 47 | 69,220 | 0 | 21.65 | 0.7 | 33.92 | 59.76 | 13.33 | 5.43 | 10.45 | 11.5 | |||||
| 21:11 | Trim Patrick St | 3 | 27.2 | 47 | 69,222 | 0 | 20.95 | 0.69 | 30.73 | 55.19 | 13.61 | 5.43 | 9.69 | 10.66 | |||||
| 21:10 | Trim Market St | 3 | 27.4 | 45 | 63,918 | 0 | 2.45 | 0.69 | 18.12 | 75.72 | 0 | 2.14 | 5.28 | 5.97 | |||||
| 21:10 | Trim Patrick St | 3 | 27.2 | 46 | 69,250 | 0 | 20.98 | 0.69 | 30.93 | 60.48 | 13.61 | 3.71 | 9.77 | 10.75 | |||||
| 21:09 | Trim Market St | 3 | 27.5 | 45 | 63,952 | 0 | 2.36 | 0.68 | 17.51 | 72.38 | 0 | 2.85 | 5.29 | 5.97 | |||||
| 21:09 | Trim Patrick St | 3 | 27.3 | 47 | 69,262 | 0 | 21.51 | 0.68 | 26.51 | 63.56 | 14.09 | 3.71 | 8.16 | 8.98 | |||||
| 21:08 | Trim Market St | 3 | 27.5 | 45 | 64,031 | 0 | 3.83 | 0.68 | 24.3 | 71 | 0 | 1.43 | 4.76 | 5.2 | |||||
| 21:08 | Trim Patrick St | 3 | 27.3 | 46 | 69,246 | 0 | 21.38 | 0.71 | 29.75 | 60.66 | 13.58 | 6.29 | 12.82 | 14.1 | |||||
| 21:07 | Trim Market St | 3 | 27.6 | 45 | 64,109 | 0 | 3.66 | 0.66 | 18.67 | 61.57 | 0 | 2.85 | 5.81 | 7.53 | |||||
| 21:07 | Trim Patrick St | 3 | 27.4 | 46 | 69,248 | 0 | 22.01 | 0.68 | 26.01 | 61.53 | 14.37 | 3.71 | 9.73 | 10.7 | |||||